createdAt,value
2022-10-16T00:02:13.216Z,0.90
2022-10-16T00:04:39.386Z,0.90
2022-10-16T00:07:05.626Z,1.02
2022-10-16T00:09:31.892Z,1.20
2022-10-16T00:11:58.133Z,0.75
2022-10-16T00:14:24.197Z,0.90
2022-10-16T00:16:50.266Z,1.10
2022-10-16T00:19:17.119Z,1.00
2022-10-16T00:21:43.442Z,1.02
2022-10-16T00:24:10.927Z,0.98
2022-10-16T00:26:39.325Z,0.80
2022-10-16T00:29:06.089Z,1.02
2022-10-16T00:31:32.593Z,1.02
2022-10-16T00:33:58.725Z,0.95
2022-10-16T00:36:26.281Z,1.08
2022-10-16T00:38:55.002Z,0.90
2022-10-16T00:41:23.351Z,0.95
2022-10-16T00:43:54.336Z,0.90
2022-10-16T00:46:36.600Z,1.17
2022-10-16T00:49:12.022Z,1.00
2022-10-16T00:51:46.957Z,0.85
2022-10-16T00:54:24.956Z,0.93
2022-10-16T00:56:51.916Z,0.90
2022-10-16T00:59:25.886Z,0.85
2022-10-16T01:01:53.361Z,0.93
2022-10-16T01:04:19.913Z,0.90
2022-10-16T01:07:05.741Z,0.93
2022-10-16T01:09:56.584Z,0.95
2022-10-16T01:12:50.134Z,0.80
2022-10-16T01:15:28.700Z,1.00
2022-10-16T01:18:08.062Z,0.80
2022-10-16T01:20:39.964Z,0.75
2022-10-16T01:23:24.938Z,1.00
2022-10-16T01:26:00.258Z,0.95
2022-10-16T01:28:36.987Z,0.80
2022-10-16T01:31:03.791Z,0.95
2022-10-16T01:34:00.990Z,0.80
2022-10-16T01:36:37.444Z,0.85
2022-10-16T01:39:04.267Z,0.90
2022-10-16T01:41:38.393Z,0.80
2022-10-16T01:44:14.597Z,0.82
2022-10-16T01:46:45.525Z,0.90
2022-10-16T01:49:12.958Z,0.85
2022-10-16T01:51:39.634Z,0.75
2022-10-16T01:54:09.877Z,0.80
2022-10-16T01:56:37.355Z,0.80
2022-10-16T01:59:11.638Z,0.90
2022-10-16T02:01:40.867Z,0.75
2022-10-16T02:04:17.670Z,0.80
2022-10-16T02:06:44.063Z,0.80
2022-10-16T02:09:10.915Z,0.70
2022-10-16T02:11:37.329Z,0.90
2022-10-16T02:14:06.575Z,1.00
2022-10-16T02:16:41.369Z,0.80
2022-10-16T02:19:08.804Z,0.80
2022-10-16T02:21:56.544Z,0.80
2022-10-16T02:24:45.786Z,0.90
2022-10-16T02:27:43.158Z,0.90
2022-10-16T02:30:19.646Z,0.77
2022-10-16T02:32:48.202Z,0.93
2022-10-16T02:35:17.662Z,0.68
2022-10-16T02:37:44.866Z,0.82
2022-10-16T02:40:11.477Z,0.70
2022-10-16T02:42:40.183Z,1.17
2022-10-16T02:45:08.307Z,0.75
2022-10-16T02:47:34.577Z,0.73
2022-10-16T02:50:00.894Z,0.75
2022-10-16T02:52:27.860Z,0.80
2022-10-16T02:54:54.307Z,0.85
2022-10-16T02:57:20.857Z,0.98
2022-10-16T02:59:47.548Z,0.75
2022-10-16T03:02:13.625Z,0.90
2022-10-16T03:04:40.078Z,0.85
2022-10-16T03:07:06.712Z,0.88
2022-10-16T03:09:32.873Z,0.80
2022-10-16T03:11:58.956Z,0.80
2022-10-16T03:14:25.222Z,0.93
2022-10-16T03:16:51.554Z,0.90
2022-10-16T03:19:18.976Z,0.80
2022-10-16T03:21:45.720Z,0.75
2022-10-16T03:24:12.315Z,0.85
2022-10-16T03:26:38.480Z,0.85
2022-10-16T03:29:05.077Z,0.80
2022-10-16T03:31:31.898Z,0.80
2022-10-16T03:33:58.333Z,0.80
2022-10-16T03:36:24.603Z,0.90
2022-10-16T03:38:50.757Z,0.70
2022-10-16T03:41:16.987Z,1.00
2022-10-16T03:43:43.129Z,0.75
2022-10-16T03:46:10.042Z,0.68
2022-10-16T03:48:36.089Z,0.70
2022-10-16T03:51:02.774Z,0.70
2022-10-16T03:53:28.843Z,0.80
2022-10-16T03:55:55.065Z,0.70
2022-10-16T03:58:21.251Z,0.85
2022-10-16T04:00:48.110Z,0.80
2022-10-16T04:03:14.266Z,0.93
2022-10-16T04:05:40.906Z,1.00
2022-10-16T04:08:07.497Z,0.65
2022-10-16T04:10:34.055Z,0.90
2022-10-16T04:13:00.153Z,0.75
2022-10-16T04:15:26.952Z,0.68
2022-10-16T04:17:53.147Z,0.82
2022-10-16T04:20:19.485Z,0.80
2022-10-16T04:22:45.803Z,0.95
2022-10-16T04:25:12.199Z,0.80
2022-10-16T04:27:42.249Z,0.75
2022-10-16T04:30:11.659Z,0.80
2022-10-16T04:32:38.083Z,0.70
2022-10-16T04:35:04.615Z,0.77
2022-10-16T04:37:31.027Z,0.70
2022-10-16T04:39:57.140Z,0.80
2022-10-16T04:42:23.283Z,0.70
2022-10-16T04:44:49.509Z,0.70
2022-10-16T04:47:15.861Z,0.73
2022-10-16T04:49:42.099Z,0.75
2022-10-16T04:52:10.029Z,0.70
2022-10-16T04:54:36.190Z,0.80
2022-10-16T04:57:02.497Z,0.57
2022-10-16T04:59:28.607Z,1.00
2022-10-16T05:01:54.845Z,0.57
2022-10-16T05:04:21.316Z,0.68
2022-10-16T05:06:48.555Z,0.60
2022-10-16T05:09:14.710Z,0.60
2022-10-16T05:11:40.837Z,0.70
2022-10-16T05:14:07.007Z,0.77
2022-10-16T05:16:33.430Z,0.70
2022-10-16T05:21:45.620Z,0.70
2022-10-16T05:24:11.866Z,0.73
2022-10-16T05:26:37.929Z,0.63
2022-10-16T05:29:04.147Z,0.73
2022-10-16T05:31:30.270Z,0.90
2022-10-16T05:34:02.121Z,0.70
2022-10-16T05:36:28.530Z,0.70
2022-10-16T05:38:54.749Z,0.60
2022-10-16T05:41:22.287Z,0.60
2022-10-16T05:43:48.790Z,0.70
2022-10-16T05:46:15.947Z,0.63
2022-10-16T05:48:42.102Z,0.63
2022-10-16T05:51:12.369Z,0.60
2022-10-16T05:53:40.936Z,0.70
2022-10-16T05:56:10.848Z,0.68
2022-10-16T05:58:40.679Z,0.68
2022-10-16T06:01:10.876Z,0.70
2022-10-16T06:03:37.418Z,0.63
2022-10-16T06:06:14.293Z,0.50
2022-10-16T06:08:41.595Z,0.60
2022-10-16T06:11:11.004Z,0.70
2022-10-16T06:13:37.739Z,0.80
2022-10-16T06:16:04.455Z,0.70
2022-10-16T06:18:30.823Z,0.63
2022-10-16T06:20:57.530Z,0.70
2022-10-16T06:23:24.576Z,0.52
2022-10-16T06:25:50.866Z,0.60
2022-10-16T06:28:17.306Z,0.60
2022-10-16T06:30:46.473Z,0.70
2022-10-16T06:33:13.379Z,0.50
2022-10-16T06:35:39.477Z,0.70
2022-10-16T06:38:05.585Z,0.80
2022-10-16T06:40:31.758Z,0.50
2022-10-16T06:42:58.174Z,0.63
2022-10-16T06:45:24.410Z,0.70
2022-10-16T06:47:50.447Z,0.65
2022-10-16T06:50:16.808Z,0.52
2022-10-16T06:52:42.913Z,0.50
2022-10-16T06:55:09.287Z,0.57
2022-10-16T06:57:35.345Z,0.60
2022-10-16T07:00:01.669Z,0.60
2022-10-16T07:02:28.200Z,0.50
2022-10-16T07:04:54.837Z,0.60
2022-10-16T07:07:21.094Z,0.70
2022-10-16T07:09:47.421Z,0.50
2022-10-16T07:12:13.514Z,0.50
2022-10-16T07:14:40.127Z,0.60
2022-10-16T07:17:06.290Z,0.65
2022-10-16T07:19:34.478Z,0.60
2022-10-16T07:22:01.987Z,0.55
2022-10-16T07:24:28.293Z,0.60
2022-10-16T07:26:54.689Z,0.60
2022-10-16T07:29:22.226Z,0.60
2022-10-16T07:31:49.632Z,0.80
2022-10-16T07:34:17.813Z,0.77
2022-10-16T07:36:45.409Z,0.70
2022-10-16T07:39:11.497Z,0.60
2022-10-16T07:41:37.746Z,0.70
2022-10-16T07:44:04.846Z,0.70
2022-10-16T07:46:31.990Z,0.60
2022-10-16T07:48:58.159Z,0.63
2022-10-16T07:51:26.560Z,0.45
2022-10-16T07:53:53.525Z,0.70
2022-10-16T07:56:21.402Z,0.50
2022-10-16T07:58:49.715Z,0.60
2022-10-16T08:01:17.500Z,0.60
2022-10-16T08:03:47.503Z,0.50
2022-10-16T08:06:14.732Z,0.60
2022-10-16T08:08:41.252Z,0.55
2022-10-16T08:11:07.828Z,0.40
2022-10-16T08:13:35.084Z,0.60
2022-10-16T08:16:01.986Z,0.40
2022-10-16T08:18:28.157Z,0.47
2022-10-16T08:20:58.870Z,0.60
2022-10-16T08:23:26.449Z,0.70
2022-10-16T08:25:54.118Z,0.60
2022-10-16T08:28:20.437Z,0.60
2022-10-16T08:30:46.630Z,0.45
2022-10-16T08:33:12.701Z,0.65
2022-10-16T08:35:38.790Z,0.60
2022-10-16T08:38:05.445Z,0.70
2022-10-16T08:40:34.640Z,0.60
2022-10-16T08:43:33.996Z,0.60
2022-10-16T08:46:19.041Z,0.70
2022-10-16T08:48:49.581Z,0.52
2022-10-16T08:51:32.403Z,0.57
2022-10-16T08:54:02.700Z,0.60
2022-10-16T08:56:29.055Z,0.50
2022-10-16T08:59:01.298Z,0.57
2022-10-16T09:01:40.388Z,0.63
2022-10-16T09:04:18.566Z,0.40
2022-10-16T09:06:51.491Z,0.73
2022-10-16T09:09:28.025Z,0.43
2022-10-16T09:12:23.268Z,0.52
2022-10-16T09:15:15.748Z,0.50
2022-10-16T09:17:55.950Z,0.60
2022-10-16T09:20:49.384Z,0.50
2022-10-16T09:23:15.471Z,0.50
2022-10-16T09:25:48.371Z,0.50
2022-10-16T09:28:15.300Z,0.47
2022-10-16T09:30:41.720Z,0.50
2022-10-16T09:33:10.304Z,0.45
2022-10-16T09:35:47.653Z,0.70
2022-10-16T09:38:35.742Z,0.50
2022-10-16T09:41:15.023Z,0.60
2022-10-16T09:43:47.261Z,0.60
2022-10-16T09:46:34.658Z,0.45
2022-10-16T09:49:06.419Z,0.60
2022-10-16T09:51:38.589Z,0.43
2022-10-16T09:54:10.475Z,0.50
2022-10-16T09:56:39.638Z,0.60
2022-10-16T09:59:12.964Z,0.60
2022-10-16T10:01:43.545Z,0.50
2022-10-16T10:04:10.721Z,0.43
2022-10-16T10:06:43.970Z,0.60
2022-10-16T10:09:26.111Z,0.50
2022-10-16T10:11:58.154Z,0.57
2022-10-16T10:14:37.097Z,0.50
2022-10-16T10:17:06.290Z,0.60
2022-10-16T10:19:41.496Z,0.50
2022-10-16T10:22:33.122Z,0.50
2022-10-16T10:25:12.961Z,0.68
2022-10-16T10:27:42.123Z,0.40
2022-10-16T10:30:26.923Z,0.65
2022-10-16T10:33:22.171Z,0.52
2022-10-16T10:36:03.374Z,0.50
2022-10-16T10:39:09.348Z,0.40
2022-10-16T10:42:02.402Z,0.50
2022-10-16T10:44:36.792Z,0.47
2022-10-16T10:47:19.967Z,0.40
2022-10-16T10:49:51.963Z,0.50
2022-10-16T10:52:54.839Z,0.52
2022-10-16T10:55:33.993Z,0.40
2022-10-16T10:58:22.406Z,0.45
2022-10-16T11:00:48.618Z,0.40
2022-10-16T11:03:46.137Z,0.40
2022-10-16T11:06:17.922Z,0.50
2022-10-16T11:08:47.075Z,0.43
2022-10-16T11:11:26.226Z,0.50
2022-10-16T11:13:56.278Z,0.50
2022-10-16T11:16:32.256Z,0.50
2022-10-16T11:19:33.396Z,0.40
2022-10-16T11:22:19.299Z,0.50
2022-10-16T11:24:48.604Z,0.40
2022-10-16T11:27:34.546Z,0.50
2022-10-16T11:30:05.282Z,0.40
2022-10-16T11:32:36.479Z,0.50
2022-10-16T11:35:15.388Z,0.50
2022-10-16T11:37:45.093Z,0.45
2022-10-16T11:40:28.218Z,0.60
2022-10-16T11:43:17.860Z,0.40
2022-10-16T11:45:48.994Z,0.50
2022-10-16T11:48:26.740Z,0.40
2022-10-16T11:50:56.782Z,0.50
2022-10-16T11:53:41.733Z,0.43
2022-10-16T11:56:08.268Z,0.40
2022-10-16T11:58:45.873Z,0.40
2022-10-16T12:01:21.120Z,0.50
2022-10-16T12:03:55.288Z,0.40
2022-10-16T12:06:57.344Z,0.55
2022-10-16T12:09:27.102Z,0.50
2022-10-16T12:11:53.659Z,0.60
2022-10-16T12:14:36.921Z,0.40
2022-10-16T12:17:21.307Z,0.40
2022-10-16T12:20:00.491Z,0.40
2022-10-16T12:22:29.947Z,0.50
2022-10-16T12:24:56.798Z,0.40
2022-10-16T12:27:31.677Z,0.40
2022-10-16T12:30:03.640Z,0.40
2022-10-16T12:32:46.755Z,0.55
2022-10-16T12:35:23.535Z,0.40
2022-10-16T12:37:50.856Z,0.60
2022-10-16T12:40:34.924Z,0.50
2022-10-16T12:43:31.620Z,0.32
2022-10-16T12:46:24.320Z,0.45
2022-10-16T12:49:06.146Z,0.50
2022-10-16T12:51:32.853Z,0.38
2022-10-16T12:54:04.924Z,0.40
2022-10-16T12:56:48.942Z,0.55
2022-10-16T12:59:23.539Z,0.40
2022-10-16T13:02:15.513Z,0.40
2022-10-16T13:04:48.049Z,0.47
2022-10-16T13:07:43.177Z,0.45
2022-10-16T13:10:27.119Z,0.50
2022-10-16T13:13:13.951Z,0.40
2022-10-16T13:15:51.183Z,0.45
2022-10-16T13:18:41.478Z,0.50
2022-10-16T13:21:44.969Z,0.35
2022-10-16T13:24:51.543Z,0.50
2022-10-16T13:27:55.906Z,0.63
2022-10-16T13:30:30.722Z,0.32
2022-10-16T13:33:08.070Z,0.40
2022-10-16T13:35:35.956Z,0.38
2022-10-16T13:38:14.054Z,0.47
2022-10-16T13:41:04.075Z,0.40
2022-10-16T13:43:41.555Z,0.45
2022-10-16T13:46:17.075Z,0.30
2022-10-16T13:48:43.490Z,0.40
2022-10-16T13:51:17.348Z,0.40
2022-10-16T13:53:44.578Z,0.40
2022-10-16T13:56:14.264Z,0.38
2022-10-16T13:58:40.994Z,0.30
2022-10-16T14:01:18.610Z,0.50
2022-10-16T14:03:46.555Z,0.30
2022-10-16T14:06:18.161Z,0.50
2022-10-16T14:08:49.138Z,0.40
2022-10-16T14:11:23.910Z,0.47
2022-10-16T14:13:50.731Z,0.50
2022-10-16T14:16:35.243Z,0.40
2022-10-16T14:19:07.004Z,0.40
2022-10-16T14:21:34.843Z,0.43
2022-10-16T14:24:12.688Z,0.50
2022-10-16T14:26:50.552Z,0.30
2022-10-16T14:29:20.529Z,0.30
2022-10-16T14:31:58.644Z,0.40
2022-10-16T14:34:33.293Z,0.47
2022-10-16T14:37:27.544Z,0.30
2022-10-16T14:39:55.174Z,0.43
2022-10-16T14:42:24.993Z,0.40
2022-10-16T14:44:55.512Z,0.30
2022-10-16T14:47:27.082Z,0.40
2022-10-16T14:49:59.409Z,0.30
2022-10-16T14:52:25.673Z,0.30
2022-10-16T14:54:55.045Z,0.50
2022-10-16T14:57:28.575Z,0.40
2022-10-16T14:59:55.127Z,0.50
2022-10-16T15:02:22.713Z,0.38
2022-10-16T15:04:49.710Z,0.40
2022-10-16T15:07:16.010Z,0.40
2022-10-16T15:09:46.557Z,0.40
2022-10-16T15:12:16.417Z,0.40
2022-10-16T15:14:43.432Z,0.40
2022-10-16T15:17:10.928Z,0.50
2022-10-16T15:19:37.149Z,0.30
2022-10-16T15:22:03.796Z,0.20
2022-10-16T15:24:30.015Z,0.40
2022-10-16T15:26:56.176Z,0.40
2022-10-16T15:29:22.317Z,0.30
2022-10-16T15:31:48.542Z,0.40
2022-10-16T15:34:15.260Z,0.40
2022-10-16T15:36:41.655Z,0.45
2022-10-16T15:39:16.350Z,0.30
2022-10-16T15:41:43.336Z,0.30
2022-10-16T15:44:09.686Z,0.30
2022-10-16T15:46:37.470Z,0.40
2022-10-16T15:49:03.992Z,0.40
2022-10-16T15:51:30.435Z,0.30
2022-10-16T15:53:57.468Z,0.40
2022-10-16T15:56:25.860Z,0.40
2022-10-16T15:58:53.124Z,0.30
2022-10-16T16:01:19.397Z,0.30
2022-10-16T16:03:45.653Z,0.30
2022-10-16T16:06:14.041Z,0.30
2022-10-16T16:08:40.333Z,0.40
2022-10-16T16:11:13.650Z,0.30
2022-10-16T16:13:40.815Z,0.30
2022-10-16T16:16:09.928Z,0.40
2022-10-16T16:18:36.783Z,0.20
2022-10-16T16:21:03.614Z,0.30
2022-10-16T16:23:29.984Z,0.43
2022-10-16T16:26:36.764Z,0.30
2022-10-16T16:29:04.225Z,0.30
2022-10-16T16:31:33.072Z,0.40
2022-10-16T16:33:59.249Z,0.40
2022-10-16T16:36:26.164Z,0.32
2022-10-16T16:38:52.274Z,0.30
2022-10-16T16:41:21.374Z,0.38
2022-10-16T16:43:48.282Z,0.52
2022-10-16T16:46:15.576Z,0.30
2022-10-16T16:48:42.530Z,0.40
2022-10-16T16:51:16.534Z,0.40
2022-10-16T16:53:44.963Z,0.47
2022-10-16T16:56:11.347Z,0.35
2022-10-16T16:58:37.729Z,0.50
2022-10-16T17:01:21.022Z,0.50
2022-10-16T17:03:52.046Z,0.40
2022-10-16T17:06:39.030Z,0.35
2022-10-16T17:09:06.956Z,0.40
2022-10-16T17:11:33.984Z,0.40
2022-10-16T17:14:01.294Z,0.28
2022-10-16T17:16:30.421Z,0.43
2022-10-16T17:19:00.570Z,0.40
2022-10-16T17:21:27.465Z,0.30
2022-10-16T17:23:53.631Z,0.30
2022-10-16T17:26:20.095Z,0.40
2022-10-16T17:28:46.272Z,0.40
2022-10-16T17:31:18.092Z,0.40
2022-10-16T17:33:44.845Z,0.40
2022-10-16T17:36:11.343Z,0.30
2022-10-16T17:38:38.151Z,0.45
2022-10-16T17:41:21.475Z,0.50
2022-10-16T17:43:48.627Z,0.32
2022-10-16T17:46:17.631Z,0.30
2022-10-16T17:48:45.943Z,0.40
2022-10-16T17:51:15.319Z,0.30
2022-10-16T17:53:41.661Z,0.35
2022-10-16T17:56:10.534Z,0.60
2022-10-16T17:58:37.435Z,0.30
2022-10-16T18:01:15.523Z,0.30
2022-10-16T18:03:41.848Z,0.30
2022-10-16T18:06:08.631Z,0.40
2022-10-16T18:08:36.310Z,0.40
2022-10-16T18:11:03.508Z,0.50
2022-10-16T18:13:30.157Z,0.35
2022-10-16T18:16:10.772Z,0.38
2022-10-16T18:18:42.642Z,0.50
2022-10-16T18:21:12.744Z,0.40
2022-10-16T18:23:39.585Z,0.40
2022-10-16T18:26:06.776Z,0.30
2022-10-16T18:28:33.245Z,0.43
2022-10-16T18:31:05.331Z,0.30
2022-10-16T18:33:32.854Z,0.40
2022-10-16T18:36:07.485Z,0.40
2022-10-16T18:38:34.740Z,0.45
2022-10-16T18:41:04.816Z,0.50
2022-10-16T18:43:32.327Z,0.30
2022-10-16T18:46:00.432Z,0.40
2022-10-16T18:48:27.299Z,0.40
2022-10-16T18:50:54.505Z,0.38
2022-10-16T18:53:20.867Z,0.40
2022-10-16T18:55:53.184Z,0.32
2022-10-16T18:58:19.418Z,0.35
2022-10-16T19:00:45.696Z,0.40
2022-10-16T19:03:11.759Z,0.40
2022-10-16T19:05:37.889Z,0.43
2022-10-16T19:08:04.179Z,0.50
2022-10-16T19:10:30.243Z,0.40
2022-10-16T19:12:56.474Z,0.40
2022-10-16T19:15:23.112Z,0.50
2022-10-16T19:17:49.148Z,0.30
2022-10-16T19:20:15.193Z,0.50
2022-10-16T19:22:58.351Z,0.40
2022-10-16T19:25:27.203Z,0.40
2022-10-16T19:27:54.456Z,0.40
2022-10-16T19:30:20.871Z,0.70
2022-10-16T19:32:48.897Z,0.50
2022-10-16T19:35:15.791Z,0.45
2022-10-16T19:37:41.970Z,0.50
2022-10-16T19:40:08.885Z,0.50
2022-10-16T19:42:35.996Z,0.40
2022-10-16T19:45:02.093Z,0.40
2022-10-16T19:47:28.317Z,0.45
2022-10-16T19:49:54.407Z,0.50
2022-10-16T19:52:21.620Z,0.40
2022-10-16T19:54:48.206Z,0.40
2022-10-16T19:57:14.296Z,0.32
2022-10-16T19:59:44.943Z,0.60
2022-10-16T20:02:11.976Z,0.50
2022-10-16T20:04:38.114Z,0.40
2022-10-16T20:07:04.275Z,0.40
2022-10-16T20:09:32.040Z,0.60
2022-10-16T20:11:58.164Z,0.50
2022-10-16T20:14:24.658Z,0.50
2022-10-16T20:16:52.617Z,0.50
2022-10-16T20:19:19.354Z,0.60
2022-10-16T20:21:45.533Z,0.60
2022-10-16T20:24:11.669Z,0.47
2022-10-16T20:26:38.157Z,0.50
2022-10-16T20:29:05.424Z,0.40
2022-10-16T20:31:33.548Z,0.40
2022-10-16T20:34:04.541Z,0.50
2022-10-16T20:36:31.280Z,0.43
2022-10-16T20:38:57.941Z,0.50
2022-10-16T20:41:24.574Z,0.50
2022-10-16T20:43:51.826Z,0.50
2022-10-16T20:46:21.593Z,0.50
2022-10-16T20:48:47.772Z,0.43
2022-10-16T20:51:26.984Z,0.50
2022-10-16T20:53:57.165Z,0.50
2022-10-16T20:56:25.146Z,0.50
2022-10-16T20:58:51.616Z,0.60
2022-10-16T21:01:20.844Z,0.45
2022-10-16T21:03:53.664Z,0.60
2022-10-16T21:06:20.286Z,0.60
2022-10-16T21:08:47.413Z,0.70
2022-10-16T21:11:15.572Z,0.45
2022-10-16T21:13:43.037Z,0.50
2022-10-16T21:16:10.910Z,0.60
2022-10-16T21:18:40.748Z,0.60
2022-10-16T21:21:11.455Z,0.60
2022-10-16T21:23:37.951Z,0.47
2022-10-16T21:26:04.288Z,0.73
2022-10-16T21:28:31.255Z,0.70
2022-10-16T21:30:57.693Z,0.60
2022-10-16T21:33:24.435Z,0.50
2022-10-16T21:35:50.724Z,0.68
2022-10-16T21:38:16.878Z,0.75
2022-10-16T21:40:42.945Z,0.60
2022-10-16T21:43:10.573Z,0.70
2022-10-16T21:45:36.679Z,0.60
2022-10-16T21:48:03.017Z,0.75
2022-10-16T21:50:29.079Z,0.63
2022-10-16T21:52:55.288Z,0.70
2022-10-16T21:55:21.370Z,0.70
2022-10-16T21:57:47.623Z,0.68
2022-10-16T22:00:14.771Z,0.70
2022-10-16T22:02:40.894Z,0.50
2022-10-16T22:05:07.374Z,0.68
2022-10-16T22:07:33.585Z,0.70
2022-10-16T22:09:59.772Z,0.70
2022-10-16T22:12:26.083Z,0.77
2022-10-16T22:14:52.196Z,0.70
2022-10-16T22:17:18.259Z,0.70
2022-10-16T22:19:44.544Z,0.70
2022-10-16T22:22:11.399Z,0.80
2022-10-16T22:24:37.502Z,0.80
2022-10-16T22:27:03.640Z,0.77
2022-10-16T22:29:29.694Z,0.70
2022-10-16T22:31:55.808Z,0.70
2022-10-16T22:34:21.965Z,0.80
2022-10-16T22:36:49.702Z,0.68
2022-10-16T22:39:16.879Z,0.70
2022-10-16T22:41:43.060Z,0.88
2022-10-16T22:44:12.235Z,0.80
2022-10-16T22:46:39.009Z,0.70
2022-10-16T22:49:05.122Z,0.93
2022-10-16T22:51:31.227Z,0.63
2022-10-16T22:53:59.044Z,0.90
2022-10-16T22:56:25.570Z,0.65
2022-10-16T22:58:51.888Z,0.80
2022-10-16T23:01:30.820Z,0.95
2022-10-16T23:03:57.646Z,0.88
2022-10-16T23:06:24.101Z,0.80
2022-10-16T23:08:54.893Z,0.85
2022-10-16T23:11:21.922Z,0.80
2022-10-16T23:13:48.708Z,0.90
2022-10-16T23:16:16.652Z,0.77
2022-10-16T23:18:43.800Z,0.80
2022-10-16T23:21:16.447Z,0.80
2022-10-16T23:23:43.299Z,0.93
2022-10-16T23:26:11.254Z,0.80
2022-10-16T23:28:38.099Z,1.10
2022-10-16T23:31:05.428Z,0.90
2022-10-16T23:33:33.242Z,0.90
2022-10-16T23:36:02.870Z,0.85
2022-10-16T23:38:29.016Z,0.90
2022-10-16T23:40:55.249Z,0.85
2022-10-16T23:43:21.407Z,0.73
2022-10-16T23:45:47.502Z,1.15
2022-10-16T23:48:13.576Z,0.80
2022-10-16T23:50:40.388Z,0.80
2022-10-16T23:53:10.024Z,0.90
2022-10-16T23:55:36.651Z,1.00
2022-10-16T23:58:02.750Z,0.68
